<?xml version="1.0" encoding="UTF-8" standalone="no" ?>
<gpx xmlns="http://www.topografix.com/GPX/1/1" xmlns:xsi="http://www.w3.org/2001/XMLSchema-instance" xsi:schemaLocation="http://www.topografix.com/GPX/1/1 http://www.topografix.com/GPX/1/1/gpx.xsd" version="1.1" creator="VisuGPX - https://www.visugpx.com">
  <metadata>
    <name>13874802-Parcours 2022 30 kms</name>
  </metadata>
  <trk>
    <name><![CDATA[13874802-Parcours 2022 30 kms]]></name>
    <trkseg>
      <trkpt lat="46.59532" lon="-1.45327">
        <ele>55</ele>
        <time>2022-02-27T18:06:58Z</time>
      </trkpt>
      <trkpt lat="46.59539" lon="-1.45328">
        <ele>55</ele>
        <time>2022-02-27T18:07:00Z</time>
      </trkpt>
      <trkpt lat="46.59545" lon="-1.45318">
        <ele>55</ele>
        <time>2022-02-27T18:07:02Z</time>
      </trkpt>
      <trkpt lat="46.59557" lon="-1.4531">
        <ele>55</ele>
        <time>2022-02-27T18:07:05Z</time>
      </trkpt>
      <trkpt lat="46.59567" lon="-1.45299">
        <ele>55</ele>
        <time>2022-02-27T18:07:08Z</time>
      </trkpt>
      <trkpt lat="46.59561" lon="-1.45273">
        <ele>55</ele>
        <time>2022-02-27T18:07:12Z</time>
      </trkpt>
      <trkpt lat="46.5956" lon="-1.45255">
        <ele>54</ele>
        <time>2022-02-27T18:07:15Z</time>
      </trkpt>
      <trkpt lat="46.59565" lon="-1.45235">
        <ele>54</ele>
        <time>2022-02-27T18:07:18Z</time>
      </trkpt>
      <trkpt lat="46.59581" lon="-1.45225">
        <ele>54</ele>
        <time>2022-02-27T18:07:23Z</time>
      </trkpt>
      <trkpt lat="46.59597" lon="-1.45278">
        <ele>55</ele>
        <time>2022-02-27T18:07:32Z</time>
      </trkpt>
      <trkpt lat="46.59627" lon="-1.45268">
        <ele>55</ele>
        <time>2022-02-27T18:07:39Z</time>
      </trkpt>
      <trkpt lat="46.59639" lon="-1.45247">
        <ele>55</ele>
        <time>2022-02-27T18:07:43Z</time>
      </trkpt>
      <trkpt lat="46.59654" lon="-1.4524">
        <ele>55</ele>
        <time>2022-02-27T18:07:47Z</time>
      </trkpt>
      <trkpt lat="46.59651" lon="-1.45202">
        <ele>54</ele>
        <time>2022-02-27T18:07:53Z</time>
      </trkpt>
      <trkpt lat="46.59659" lon="-1.45196">
        <ele>54</ele>
        <time>2022-02-27T18:07:55Z</time>
      </trkpt>
      <trkpt lat="46.59668" lon="-1.45175">
        <ele>53</ele>
        <time>2022-02-27T18:07:59Z</time>
      </trkpt>
      <trkpt lat="46.59676" lon="-1.45163">
        <ele>53</ele>
        <time>2022-02-27T18:08:02Z</time>
      </trkpt>
      <trkpt lat="46.59671" lon="-1.45118">
        <ele>53</ele>
        <time>2022-02-27T18:08:09Z</time>
      </trkpt>
      <trkpt lat="46.59723" lon="-1.4512">
        <ele>55</ele>
        <time>2022-02-27T18:08:21Z</time>
      </trkpt>
      <trkpt lat="46.59727" lon="-1.45082">
        <ele>55</ele>
        <time>2022-02-27T18:08:28Z</time>
      </trkpt>
      <trkpt lat="46.59878" lon="-1.45048">
        <ele>59</ele>
        <time>2022-02-27T18:09:03Z</time>
      </trkpt>
      <trkpt lat="46.59917" lon="-1.45021">
        <ele>59</ele>
        <time>2022-02-27T18:09:13Z</time>
      </trkpt>
      <trkpt lat="46.59947" lon="-1.44975">
        <ele>57</ele>
        <time>2022-02-27T18:09:24Z</time>
      </trkpt>
      <trkpt lat="46.59962" lon="-1.44966">
        <ele>57</ele>
        <time>2022-02-27T18:09:27Z</time>
      </trkpt>
      <trkpt lat="46.6001" lon="-1.44964">
        <ele>56</ele>
        <time>2022-02-27T18:09:39Z</time>
      </trkpt>
      <trkpt lat="46.60028" lon="-1.44947">
        <ele>57</ele>
        <time>2022-02-27T18:09:44Z</time>
      </trkpt>
      <trkpt lat="46.60037" lon="-1.44905">
        <ele>57</ele>
        <time>2022-02-27T18:09:51Z</time>
      </trkpt>
      <trkpt lat="46.60056" lon="-1.4489">
        <ele>58</ele>
        <time>2022-02-27T18:09:56Z</time>
      </trkpt>
      <trkpt lat="46.60082" lon="-1.44908">
        <ele>59</ele>
        <time>2022-02-27T18:10:02Z</time>
      </trkpt>
      <trkpt lat="46.60123" lon="-1.44928">
        <ele>60</ele>
        <time>2022-02-27T18:10:13Z</time>
      </trkpt>
      <trkpt lat="46.60186" lon="-1.44867">
        <ele>60</ele>
        <time>2022-02-27T18:10:30Z</time>
      </trkpt>
      <trkpt lat="46.60214" lon="-1.44838">
        <ele>59</ele>
        <time>2022-02-27T18:10:38Z</time>
      </trkpt>
      <trkpt lat="46.60231" lon="-1.44817">
        <ele>59</ele>
        <time>2022-02-27T18:10:43Z</time>
      </trkpt>
      <trkpt lat="46.60163" lon="-1.44617">
        <ele>52</ele>
        <time>2022-02-27T18:11:19Z</time>
      </trkpt>
      <trkpt lat="46.60162" lon="-1.44586">
        <ele>50</ele>
        <time>2022-02-27T18:11:24Z</time>
      </trkpt>
      <trkpt lat="46.60172" lon="-1.44574">
        <ele>50</ele>
        <time>2022-02-27T18:11:27Z</time>
      </trkpt>
      <trkpt lat="46.60193" lon="-1.44573">
        <ele>49</ele>
        <time>2022-02-27T18:11:32Z</time>
      </trkpt>
      <trkpt lat="46.60215" lon="-1.4457">
        <ele>49</ele>
        <time>2022-02-27T18:11:37Z</time>
      </trkpt>
      <trkpt lat="46.60247" lon="-1.44551">
        <ele>48</ele>
        <time>2022-02-27T18:11:45Z</time>
      </trkpt>
      <trkpt lat="46.60272" lon="-1.44524">
        <ele>47</ele>
        <time>2022-02-27T18:11:53Z</time>
      </trkpt>
      <trkpt lat="46.60308" lon="-1.44483">
        <ele>47</ele>
        <time>2022-02-27T18:12:03Z</time>
      </trkpt>
      <trkpt lat="46.60317" lon="-1.44446">
        <ele>46</ele>
        <time>2022-02-27T18:12:10Z</time>
      </trkpt>
      <trkpt lat="46.60413" lon="-1.44482">
        <ele>48</ele>
        <time>2022-02-27T18:12:33Z</time>
      </trkpt>
      <trkpt lat="46.60422" lon="-1.44511">
        <ele>49</ele>
        <time>2022-02-27T18:12:38Z</time>
      </trkpt>
      <trkpt lat="46.60442" lon="-1.44452">
        <ele>47</ele>
        <time>2022-02-27T18:12:48Z</time>
      </trkpt>
      <trkpt lat="46.60458" lon="-1.44452">
        <ele>47</ele>
        <time>2022-02-27T18:12:52Z</time>
      </trkpt>
      <trkpt lat="46.60496" lon="-1.44431">
        <ele>46</ele>
        <time>2022-02-27T18:13:02Z</time>
      </trkpt>
      <trkpt lat="46.60555" lon="-1.44405">
        <ele>47</ele>
        <time>2022-02-27T18:13:16Z</time>
      </trkpt>
      <trkpt lat="46.60593" lon="-1.44383">
        <ele>47</ele>
        <time>2022-02-27T18:13:26Z</time>
      </trkpt>
      <trkpt lat="46.60619" lon="-1.44363">
        <ele>47</ele>
        <time>2022-02-27T18:13:32Z</time>
      </trkpt>
      <trkpt lat="46.6064" lon="-1.44407">
        <ele>47</ele>
        <time>2022-02-27T18:13:41Z</time>
      </trkpt>
      <trkpt lat="46.60653" lon="-1.44426">
        <ele>47</ele>
        <time>2022-02-27T18:13:45Z</time>
      </trkpt>
      <trkpt lat="46.60665" lon="-1.44381">
        <ele>47</ele>
        <time>2022-02-27T18:13:53Z</time>
      </trkpt>
      <trkpt lat="46.60665" lon="-1.44343">
        <ele>46</ele>
        <time>2022-02-27T18:13:59Z</time>
      </trkpt>
      <trkpt lat="46.60671" lon="-1.44264">
        <ele>45</ele>
        <time>2022-02-27T18:14:12Z</time>
      </trkpt>
      <trkpt lat="46.60506" lon="-1.43697">
        <ele>63</ele>
        <time>2022-02-27T18:15:51Z</time>
      </trkpt>
      <trkpt lat="46.60566" lon="-1.43635">
        <ele>65</ele>
        <time>2022-02-27T18:16:08Z</time>
      </trkpt>
      <trkpt lat="46.60412" lon="-1.4337">
        <ele>70</ele>
        <time>2022-02-27T18:17:04Z</time>
      </trkpt>
      <trkpt lat="46.60289" lon="-1.43256">
        <ele>70</ele>
        <time>2022-02-27T18:17:38Z</time>
      </trkpt>
      <trkpt lat="46.60179" lon="-1.4307">
        <ele>67</ele>
        <time>2022-02-27T18:18:17Z</time>
      </trkpt>
      <trkpt lat="46.60115" lon="-1.43001">
        <ele>66</ele>
        <time>2022-02-27T18:18:36Z</time>
      </trkpt>
      <trkpt lat="46.60071" lon="-1.42904">
        <ele>67</ele>
        <time>2022-02-27T18:18:54Z</time>
      </trkpt>
      <trkpt lat="46.59988" lon="-1.42445">
        <ele>65</ele>
        <time>2022-02-27T18:20:10Z</time>
      </trkpt>
      <trkpt lat="46.59941" lon="-1.42268">
        <ele>65</ele>
        <time>2022-02-27T18:20:41Z</time>
      </trkpt>
      <trkpt lat="46.60004" lon="-1.42212">
        <ele>66</ele>
        <time>2022-02-27T18:20:58Z</time>
      </trkpt>
      <trkpt lat="46.60143" lon="-1.42159">
        <ele>63</ele>
        <time>2022-02-27T18:21:32Z</time>
      </trkpt>
      <trkpt lat="46.60096" lon="-1.42031">
        <ele>62</ele>
        <time>2022-02-27T18:21:55Z</time>
      </trkpt>
      <trkpt lat="46.60282" lon="-1.41935">
        <ele>56</ele>
        <time>2022-02-27T18:22:41Z</time>
      </trkpt>
      <trkpt lat="46.60341" lon="-1.4188">
        <ele>56</ele>
        <time>2022-02-27T18:22:57Z</time>
      </trkpt>
      <trkpt lat="46.60413" lon="-1.41754">
        <ele>56</ele>
        <time>2022-02-27T18:23:24Z</time>
      </trkpt>
      <trkpt lat="46.60428" lon="-1.41747">
        <ele>56</ele>
        <time>2022-02-27T18:23:27Z</time>
      </trkpt>
      <trkpt lat="46.60481" lon="-1.41797">
        <ele>56</ele>
        <time>2022-02-27T18:23:42Z</time>
      </trkpt>
      <trkpt lat="46.6056" lon="-1.41949">
        <ele>58</ele>
        <time>2022-02-27T18:24:13Z</time>
      </trkpt>
      <trkpt lat="46.60592" lon="-1.4204">
        <ele>59</ele>
        <time>2022-02-27T18:24:29Z</time>
      </trkpt>
      <trkpt lat="46.60637" lon="-1.41955">
        <ele>58</ele>
        <time>2022-02-27T18:24:46Z</time>
      </trkpt>
      <trkpt lat="46.60658" lon="-1.4191">
        <ele>57</ele>
        <time>2022-02-27T18:24:55Z</time>
      </trkpt>
      <trkpt lat="46.60595" lon="-1.41872">
        <ele>57</ele>
        <time>2022-02-27T18:25:11Z</time>
      </trkpt>
      <trkpt lat="46.60448" lon="-1.41735">
        <ele>55</ele>
        <time>2022-02-27T18:25:52Z</time>
      </trkpt>
      <trkpt lat="46.60339" lon="-1.41583">
        <ele>55</ele>
        <time>2022-02-27T18:26:27Z</time>
      </trkpt>
      <trkpt lat="46.60282" lon="-1.41469">
        <ele>57</ele>
        <time>2022-02-27T18:26:50Z</time>
      </trkpt>
      <trkpt lat="46.60243" lon="-1.41445">
        <ele>58</ele>
        <time>2022-02-27T18:27:00Z</time>
      </trkpt>
      <trkpt lat="46.60151" lon="-1.41383">
        <ele>60</ele>
        <time>2022-02-27T18:27:23Z</time>
      </trkpt>
      <trkpt lat="46.60059" lon="-1.41358">
        <ele>62</ele>
        <time>2022-02-27T18:27:45Z</time>
      </trkpt>
      <trkpt lat="46.59915" lon="-1.41214">
        <ele>64</ele>
        <time>2022-02-27T18:28:26Z</time>
      </trkpt>
      <trkpt lat="46.59866" lon="-1.41177">
        <ele>66</ele>
        <time>2022-02-27T18:28:39Z</time>
      </trkpt>
      <trkpt lat="46.59886" lon="-1.41164">
        <ele>66</ele>
        <time>2022-02-27T18:28:44Z</time>
      </trkpt>
      <trkpt lat="46.59922" lon="-1.41127">
        <ele>66</ele>
        <time>2022-02-27T18:28:54Z</time>
      </trkpt>
      <trkpt lat="46.59905" lon="-1.41102">
        <ele>66</ele>
        <time>2022-02-27T18:29:00Z</time>
      </trkpt>
      <trkpt lat="46.59887" lon="-1.4107">
        <ele>66</ele>
        <time>2022-02-27T18:29:06Z</time>
      </trkpt>
      <trkpt lat="46.59893" lon="-1.41003">
        <ele>66</ele>
        <time>2022-02-27T18:29:17Z</time>
      </trkpt>
      <trkpt lat="46.59875" lon="-1.40937">
        <ele>65</ele>
        <time>2022-02-27T18:29:29Z</time>
      </trkpt>
      <trkpt lat="46.59856" lon="-1.40882">
        <ele>65</ele>
        <time>2022-02-27T18:29:39Z</time>
      </trkpt>
      <trkpt lat="46.59852" lon="-1.40785">
        <ele>64</ele>
        <time>2022-02-27T18:29:54Z</time>
      </trkpt>
      <trkpt lat="46.59837" lon="-1.40696">
        <ele>65</ele>
        <time>2022-02-27T18:30:09Z</time>
      </trkpt>
      <trkpt lat="46.5982" lon="-1.40609">
        <ele>63</ele>
        <time>2022-02-27T18:30:23Z</time>
      </trkpt>
      <trkpt lat="46.59794" lon="-1.40506">
        <ele>60</ele>
        <time>2022-02-27T18:30:41Z</time>
      </trkpt>
      <trkpt lat="46.59777" lon="-1.4042">
        <ele>56</ele>
        <time>2022-02-27T18:30:55Z</time>
      </trkpt>
      <trkpt lat="46.59768" lon="-1.40387">
        <ele>56</ele>
        <time>2022-02-27T18:31:01Z</time>
      </trkpt>
      <trkpt lat="46.59783" lon="-1.4029">
        <ele>58</ele>
        <time>2022-02-27T18:31:17Z</time>
      </trkpt>
      <trkpt lat="46.59799" lon="-1.40201">
        <ele>60</ele>
        <time>2022-02-27T18:31:32Z</time>
      </trkpt>
      <trkpt lat="46.59842" lon="-1.40138">
        <ele>60</ele>
        <time>2022-02-27T18:31:46Z</time>
      </trkpt>
      <trkpt lat="46.59853" lon="-1.40072">
        <ele>60</ele>
        <time>2022-02-27T18:31:57Z</time>
      </trkpt>
      <trkpt lat="46.59819" lon="-1.39992">
        <ele>61</ele>
        <time>2022-02-27T18:32:12Z</time>
      </trkpt>
      <trkpt lat="46.59786" lon="-1.39937">
        <ele>59</ele>
        <time>2022-02-27T18:32:24Z</time>
      </trkpt>
      <trkpt lat="46.59755" lon="-1.39867">
        <ele>60</ele>
        <time>2022-02-27T18:32:37Z</time>
      </trkpt>
      <trkpt lat="46.59657" lon="-1.39754">
        <ele>52</ele>
        <time>2022-02-27T18:33:06Z</time>
      </trkpt>
      <trkpt lat="46.59609" lon="-1.3973">
        <ele>49</ele>
        <time>2022-02-27T18:33:18Z</time>
      </trkpt>
      <trkpt lat="46.59576" lon="-1.39757">
        <ele>48</ele>
        <time>2022-02-27T18:33:27Z</time>
      </trkpt>
      <trkpt lat="46.59513" lon="-1.39765">
        <ele>52</ele>
        <time>2022-02-27T18:33:42Z</time>
      </trkpt>
      <trkpt lat="46.59468" lon="-1.39772">
        <ele>54</ele>
        <time>2022-02-27T18:33:52Z</time>
      </trkpt>
      <trkpt lat="46.59463" lon="-1.39677">
        <ele>52</ele>
        <time>2022-02-27T18:34:08Z</time>
      </trkpt>
      <trkpt lat="46.59463" lon="-1.39649">
        <ele>52</ele>
        <time>2022-02-27T18:34:12Z</time>
      </trkpt>
      <trkpt lat="46.59429" lon="-1.39606">
        <ele>53</ele>
        <time>2022-02-27T18:34:23Z</time>
      </trkpt>
      <trkpt lat="46.59353" lon="-1.39598">
        <ele>56</ele>
        <time>2022-02-27T18:34:40Z</time>
      </trkpt>
      <trkpt lat="46.59333" lon="-1.39583">
        <ele>57</ele>
        <time>2022-02-27T18:34:46Z</time>
      </trkpt>
      <trkpt lat="46.59311" lon="-1.3959">
        <ele>58</ele>
        <time>2022-02-27T18:34:51Z</time>
      </trkpt>
      <trkpt lat="46.59231" lon="-1.39375">
        <ele>62</ele>
        <time>2022-02-27T18:35:30Z</time>
      </trkpt>
      <trkpt lat="46.59208" lon="-1.39345">
        <ele>63</ele>
        <time>2022-02-27T18:35:37Z</time>
      </trkpt>
      <trkpt lat="46.59143" lon="-1.39322">
        <ele>65</ele>
        <time>2022-02-27T18:35:53Z</time>
      </trkpt>
      <trkpt lat="46.59136" lon="-1.3912">
        <ele>63</ele>
        <time>2022-02-27T18:36:25Z</time>
      </trkpt>
      <trkpt lat="46.5908" lon="-1.39107">
        <ele>66</ele>
        <time>2022-02-27T18:36:39Z</time>
      </trkpt>
      <trkpt lat="46.59052" lon="-1.39079">
        <ele>65</ele>
        <time>2022-02-27T18:36:47Z</time>
      </trkpt>
      <trkpt lat="46.59017" lon="-1.38975">
        <ele>64</ele>
        <time>2022-02-27T18:37:05Z</time>
      </trkpt>
      <trkpt lat="46.59027" lon="-1.38847">
        <ele>62</ele>
        <time>2022-02-27T18:37:26Z</time>
      </trkpt>
      <trkpt lat="46.59053" lon="-1.38814">
        <ele>61</ele>
        <time>2022-02-27T18:37:34Z</time>
      </trkpt>
      <trkpt lat="46.58971" lon="-1.38754">
        <ele>61</ele>
        <time>2022-02-27T18:37:55Z</time>
      </trkpt>
      <trkpt lat="46.5897" lon="-1.38716">
        <ele>61</ele>
        <time>2022-02-27T18:38:01Z</time>
      </trkpt>
      <trkpt lat="46.58947" lon="-1.38695">
        <ele>61</ele>
        <time>2022-02-27T18:38:08Z</time>
      </trkpt>
      <trkpt lat="46.58948" lon="-1.38618">
        <ele>59</ele>
        <time>2022-02-27T18:38:20Z</time>
      </trkpt>
      <trkpt lat="46.58999" lon="-1.38618">
        <ele>57</ele>
        <time>2022-02-27T18:38:32Z</time>
      </trkpt>
      <trkpt lat="46.59057" lon="-1.38567">
        <ele>54</ele>
        <time>2022-02-27T18:38:48Z</time>
      </trkpt>
      <trkpt lat="46.59094" lon="-1.38537">
        <ele>52</ele>
        <time>2022-02-27T18:38:58Z</time>
      </trkpt>
      <trkpt lat="46.5913" lon="-1.38534">
        <ele>51</ele>
        <time>2022-02-27T18:39:06Z</time>
      </trkpt>
      <trkpt lat="46.59209" lon="-1.38471">
        <ele>50</ele>
        <time>2022-02-27T18:39:27Z</time>
      </trkpt>
      <trkpt lat="46.59279" lon="-1.38428">
        <ele>49</ele>
        <time>2022-02-27T18:39:45Z</time>
      </trkpt>
      <trkpt lat="46.59336" lon="-1.3843">
        <ele>48</ele>
        <time>2022-02-27T18:39:58Z</time>
      </trkpt>
      <trkpt lat="46.59365" lon="-1.38426">
        <ele>49</ele>
        <time>2022-02-27T18:40:05Z</time>
      </trkpt>
      <trkpt lat="46.59378" lon="-1.38364">
        <ele>48</ele>
        <time>2022-02-27T18:40:16Z</time>
      </trkpt>
      <trkpt lat="46.59458" lon="-1.38291">
        <ele>47</ele>
        <time>2022-02-27T18:40:38Z</time>
      </trkpt>
      <trkpt lat="46.59488" lon="-1.38283">
        <ele>48</ele>
        <time>2022-02-27T18:40:45Z</time>
      </trkpt>
      <trkpt lat="46.59539" lon="-1.38299">
        <ele>49</ele>
        <time>2022-02-27T18:40:57Z</time>
      </trkpt>
      <trkpt lat="46.59579" lon="-1.38291">
        <ele>49</ele>
        <time>2022-02-27T18:41:06Z</time>
      </trkpt>
      <trkpt lat="46.59534" lon="-1.38139">
        <ele>42</ele>
        <time>2022-02-27T18:41:33Z</time>
      </trkpt>
      <trkpt lat="46.59561" lon="-1.38083">
        <ele>39</ele>
        <time>2022-02-27T18:41:44Z</time>
      </trkpt>
      <trkpt lat="46.59581" lon="-1.38049">
        <ele>36</ele>
        <time>2022-02-27T18:41:51Z</time>
      </trkpt>
      <trkpt lat="46.59597" lon="-1.37949">
        <ele>33</ele>
        <time>2022-02-27T18:42:08Z</time>
      </trkpt>
      <trkpt lat="46.59609" lon="-1.37929">
        <ele>33</ele>
        <time>2022-02-27T18:42:12Z</time>
      </trkpt>
      <trkpt lat="46.5961" lon="-1.37925">
        <ele>33</ele>
        <time>2022-02-27T18:42:12Z</time>
      </trkpt>
      <trkpt lat="46.59606" lon="-1.37921">
        <ele>32</ele>
        <time>2022-02-27T18:42:14Z</time>
      </trkpt>
      <trkpt lat="46.59568" lon="-1.37862">
        <ele>33</ele>
        <time>2022-02-27T18:42:27Z</time>
      </trkpt>
      <trkpt lat="46.59503" lon="-1.37834">
        <ele>36</ele>
        <time>2022-02-27T18:42:42Z</time>
      </trkpt>
      <trkpt lat="46.59445" lon="-1.37801">
        <ele>42</ele>
        <time>2022-02-27T18:42:57Z</time>
      </trkpt>
      <trkpt lat="46.59428" lon="-1.37764">
        <ele>42</ele>
        <time>2022-02-27T18:43:04Z</time>
      </trkpt>
      <trkpt lat="46.59393" lon="-1.37663">
        <ele>39</ele>
        <time>2022-02-27T18:43:22Z</time>
      </trkpt>
      <trkpt lat="46.59316" lon="-1.37772">
        <ele>49</ele>
        <time>2022-02-27T18:43:47Z</time>
      </trkpt>
      <trkpt lat="46.59299" lon="-1.37731">
        <ele>49</ele>
        <time>2022-02-27T18:43:55Z</time>
      </trkpt>
      <trkpt lat="46.5926" lon="-1.37671">
        <ele>50</ele>
        <time>2022-02-27T18:44:08Z</time>
      </trkpt>
      <trkpt lat="46.59216" lon="-1.37635">
        <ele>47</ele>
        <time>2022-02-27T18:44:20Z</time>
      </trkpt>
      <trkpt lat="46.59197" lon="-1.37625">
        <ele>47</ele>
        <time>2022-02-27T18:44:25Z</time>
      </trkpt>
      <trkpt lat="46.59097" lon="-1.37627">
        <ele>49</ele>
        <time>2022-02-27T18:44:48Z</time>
      </trkpt>
      <trkpt lat="46.59079" lon="-1.37618">
        <ele>49</ele>
        <time>2022-02-27T18:44:53Z</time>
      </trkpt>
      <trkpt lat="46.5907" lon="-1.37624">
        <ele>49</ele>
        <time>2022-02-27T18:44:55Z</time>
      </trkpt>
      <trkpt lat="46.5903" lon="-1.37694">
        <ele>53</ele>
        <time>2022-02-27T18:45:09Z</time>
      </trkpt>
      <trkpt lat="46.58985" lon="-1.37617">
        <ele>50</ele>
        <time>2022-02-27T18:45:26Z</time>
      </trkpt>
      <trkpt lat="46.58943" lon="-1.37571">
        <ele>46</ele>
        <time>2022-02-27T18:45:38Z</time>
      </trkpt>
      <trkpt lat="46.5887" lon="-1.3752">
        <ele>40</ele>
        <time>2022-02-27T18:45:57Z</time>
      </trkpt>
      <trkpt lat="46.5881" lon="-1.37491">
        <ele>39</ele>
        <time>2022-02-27T18:46:12Z</time>
      </trkpt>
      <trkpt lat="46.58738" lon="-1.37517">
        <ele>45</ele>
        <time>2022-02-27T18:46:29Z</time>
      </trkpt>
      <trkpt lat="46.58669" lon="-1.37481">
        <ele>53</ele>
        <time>2022-02-27T18:46:46Z</time>
      </trkpt>
      <trkpt lat="46.58659" lon="-1.37451">
        <ele>54</ele>
        <time>2022-02-27T18:46:51Z</time>
      </trkpt>
      <trkpt lat="46.58614" lon="-1.37244">
        <ele>56</ele>
        <time>2022-02-27T18:47:26Z</time>
      </trkpt>
      <trkpt lat="46.586" lon="-1.37199">
        <ele>55</ele>
        <time>2022-02-27T18:47:34Z</time>
      </trkpt>
      <trkpt lat="46.58601" lon="-1.3717">
        <ele>54</ele>
        <time>2022-02-27T18:47:39Z</time>
      </trkpt>
      <trkpt lat="46.58601" lon="-1.37098">
        <ele>54</ele>
        <time>2022-02-27T18:47:50Z</time>
      </trkpt>
      <trkpt lat="46.58579" lon="-1.37056">
        <ele>52</ele>
        <time>2022-02-27T18:47:59Z</time>
      </trkpt>
      <trkpt lat="46.58529" lon="-1.36996">
        <ele>48</ele>
        <time>2022-02-27T18:48:14Z</time>
      </trkpt>
      <trkpt lat="46.58534" lon="-1.36954">
        <ele>46</ele>
        <time>2022-02-27T18:48:21Z</time>
      </trkpt>
      <trkpt lat="46.5853" lon="-1.36922">
        <ele>46</ele>
        <time>2022-02-27T18:48:26Z</time>
      </trkpt>
      <trkpt lat="46.58534" lon="-1.36896">
        <ele>45</ele>
        <time>2022-02-27T18:48:30Z</time>
      </trkpt>
      <trkpt lat="46.58546" lon="-1.36843">
        <ele>44</ele>
        <time>2022-02-27T18:48:39Z</time>
      </trkpt>
      <trkpt lat="46.58572" lon="-1.36789">
        <ele>42</ele>
        <time>2022-02-27T18:48:50Z</time>
      </trkpt>
      <trkpt lat="46.58587" lon="-1.36739">
        <ele>40</ele>
        <time>2022-02-27T18:48:59Z</time>
      </trkpt>
      <trkpt lat="46.58587" lon="-1.3673">
        <ele>39</ele>
        <time>2022-02-27T18:49:00Z</time>
      </trkpt>
      <trkpt lat="46.58593" lon="-1.36608">
        <ele>37</ele>
        <time>2022-02-27T18:49:20Z</time>
      </trkpt>
      <trkpt lat="46.58606" lon="-1.36564">
        <ele>36</ele>
        <time>2022-02-27T18:49:27Z</time>
      </trkpt>
      <trkpt lat="46.58635" lon="-1.36499">
        <ele>35</ele>
        <time>2022-02-27T18:49:40Z</time>
      </trkpt>
      <trkpt lat="46.58645" lon="-1.36471">
        <ele>34</ele>
        <time>2022-02-27T18:49:45Z</time>
      </trkpt>
      <trkpt lat="46.58646" lon="-1.36452">
        <ele>34</ele>
        <time>2022-02-27T18:49:48Z</time>
      </trkpt>
      <trkpt lat="46.58575" lon="-1.36461">
        <ele>35</ele>
        <time>2022-02-27T18:50:05Z</time>
      </trkpt>
      <trkpt lat="46.58513" lon="-1.36484">
        <ele>37</ele>
        <time>2022-02-27T18:50:20Z</time>
      </trkpt>
      <trkpt lat="46.58421" lon="-1.36492">
        <ele>40</ele>
        <time>2022-02-27T18:50:41Z</time>
      </trkpt>
      <trkpt lat="46.58395" lon="-1.36519">
        <ele>41</ele>
        <time>2022-02-27T18:50:49Z</time>
      </trkpt>
      <trkpt lat="46.5838" lon="-1.36529">
        <ele>41</ele>
        <time>2022-02-27T18:50:52Z</time>
      </trkpt>
      <trkpt lat="46.5835" lon="-1.36478">
        <ele>38</ele>
        <time>2022-02-27T18:51:03Z</time>
      </trkpt>
      <trkpt lat="46.58326" lon="-1.36446">
        <ele>36</ele>
        <time>2022-02-27T18:51:11Z</time>
      </trkpt>
      <trkpt lat="46.58306" lon="-1.36425">
        <ele>34</ele>
        <time>2022-02-27T18:51:17Z</time>
      </trkpt>
      <trkpt lat="46.58292" lon="-1.36397">
        <ele>32</ele>
        <time>2022-02-27T18:51:22Z</time>
      </trkpt>
      <trkpt lat="46.58211" lon="-1.36132">
        <ele>39</ele>
        <time>2022-02-27T18:52:09Z</time>
      </trkpt>
      <trkpt lat="46.58194" lon="-1.36166">
        <ele>40</ele>
        <time>2022-02-27T18:52:15Z</time>
      </trkpt>
      <trkpt lat="46.58181" lon="-1.36235">
        <ele>36</ele>
        <time>2022-02-27T18:52:27Z</time>
      </trkpt>
      <trkpt lat="46.58163" lon="-1.36269">
        <ele>35</ele>
        <time>2022-02-27T18:52:34Z</time>
      </trkpt>
      <trkpt lat="46.58093" lon="-1.36265">
        <ele>39</ele>
        <time>2022-02-27T18:52:50Z</time>
      </trkpt>
      <trkpt lat="46.58057" lon="-1.36248">
        <ele>41</ele>
        <time>2022-02-27T18:52:59Z</time>
      </trkpt>
      <trkpt lat="46.58021" lon="-1.36213">
        <ele>43</ele>
        <time>2022-02-27T18:53:09Z</time>
      </trkpt>
      <trkpt lat="46.57997" lon="-1.36177">
        <ele>44</ele>
        <time>2022-02-27T18:53:17Z</time>
      </trkpt>
      <trkpt lat="46.57962" lon="-1.3613">
        <ele>43</ele>
        <time>2022-02-27T18:53:28Z</time>
      </trkpt>
      <trkpt lat="46.5793" lon="-1.36077">
        <ele>41</ele>
        <time>2022-02-27T18:53:40Z</time>
      </trkpt>
      <trkpt lat="46.57897" lon="-1.36002">
        <ele>36</ele>
        <time>2022-02-27T18:53:54Z</time>
      </trkpt>
      <trkpt lat="46.57876" lon="-1.3595">
        <ele>35</ele>
        <time>2022-02-27T18:54:04Z</time>
      </trkpt>
      <trkpt lat="46.57867" lon="-1.35931">
        <ele>35</ele>
        <time>2022-02-27T18:54:07Z</time>
      </trkpt>
      <trkpt lat="46.57851" lon="-1.35921">
        <ele>34</ele>
        <time>2022-02-27T18:54:11Z</time>
      </trkpt>
      <trkpt lat="46.57835" lon="-1.35827">
        <ele>36</ele>
        <time>2022-02-27T18:54:27Z</time>
      </trkpt>
      <trkpt lat="46.57856" lon="-1.35728">
        <ele>39</ele>
        <time>2022-02-27T18:54:44Z</time>
      </trkpt>
      <trkpt lat="46.57868" lon="-1.35679">
        <ele>41</ele>
        <time>2022-02-27T18:54:52Z</time>
      </trkpt>
      <trkpt lat="46.57839" lon="-1.35558">
        <ele>43</ele>
        <time>2022-02-27T18:55:12Z</time>
      </trkpt>
      <trkpt lat="46.57824" lon="-1.35509">
        <ele>46</ele>
        <time>2022-02-27T18:55:21Z</time>
      </trkpt>
      <trkpt lat="46.57822" lon="-1.35462">
        <ele>48</ele>
        <time>2022-02-27T18:55:29Z</time>
      </trkpt>
      <trkpt lat="46.57831" lon="-1.35392">
        <ele>50</ele>
        <time>2022-02-27T18:55:40Z</time>
      </trkpt>
      <trkpt lat="46.57778" lon="-1.35374">
        <ele>49</ele>
        <time>2022-02-27T18:55:53Z</time>
      </trkpt>
      <trkpt lat="46.57767" lon="-1.35383">
        <ele>48</ele>
        <time>2022-02-27T18:55:56Z</time>
      </trkpt>
      <trkpt lat="46.57754" lon="-1.35414">
        <ele>46</ele>
        <time>2022-02-27T18:56:02Z</time>
      </trkpt>
      <trkpt lat="46.57724" lon="-1.35409">
        <ele>43</ele>
        <time>2022-02-27T18:56:09Z</time>
      </trkpt>
      <trkpt lat="46.5769" lon="-1.35464">
        <ele>35</ele>
        <time>2022-02-27T18:56:20Z</time>
      </trkpt>
      <trkpt lat="46.57659" lon="-1.3542">
        <ele>34</ele>
        <time>2022-02-27T18:56:31Z</time>
      </trkpt>
      <trkpt lat="46.57594" lon="-1.35369">
        <ele>37</ele>
        <time>2022-02-27T18:56:48Z</time>
      </trkpt>
      <trkpt lat="46.57541" lon="-1.35374">
        <ele>36</ele>
        <time>2022-02-27T18:57:00Z</time>
      </trkpt>
      <trkpt lat="46.57481" lon="-1.35394">
        <ele>36</ele>
        <time>2022-02-27T18:57:15Z</time>
      </trkpt>
      <trkpt lat="46.57436" lon="-1.35414">
        <ele>37</ele>
        <time>2022-02-27T18:57:26Z</time>
      </trkpt>
      <trkpt lat="46.57399" lon="-1.35442">
        <ele>37</ele>
        <time>2022-02-27T18:57:35Z</time>
      </trkpt>
      <trkpt lat="46.57351" lon="-1.35491">
        <ele>35</ele>
        <time>2022-02-27T18:57:49Z</time>
      </trkpt>
      <trkpt lat="46.5732" lon="-1.35522">
        <ele>34</ele>
        <time>2022-02-27T18:57:58Z</time>
      </trkpt>
      <trkpt lat="46.57269" lon="-1.35529">
        <ele>37</ele>
        <time>2022-02-27T18:58:10Z</time>
      </trkpt>
      <trkpt lat="46.57228" lon="-1.35528">
        <ele>39</ele>
        <time>2022-02-27T18:58:19Z</time>
      </trkpt>
      <trkpt lat="46.57194" lon="-1.35415">
        <ele>47</ele>
        <time>2022-02-27T18:58:39Z</time>
      </trkpt>
      <trkpt lat="46.57172" lon="-1.35336">
        <ele>46</ele>
        <time>2022-02-27T18:58:53Z</time>
      </trkpt>
      <trkpt lat="46.57169" lon="-1.35299">
        <ele>46</ele>
        <time>2022-02-27T18:58:59Z</time>
      </trkpt>
      <trkpt lat="46.57158" lon="-1.35248">
        <ele>45</ele>
        <time>2022-02-27T18:59:07Z</time>
      </trkpt>
      <trkpt lat="46.57111" lon="-1.35255">
        <ele>44</ele>
        <time>2022-02-27T18:59:18Z</time>
      </trkpt>
      <trkpt lat="46.5706" lon="-1.35273">
        <ele>44</ele>
        <time>2022-02-27T18:59:31Z</time>
      </trkpt>
      <trkpt lat="46.56958" lon="-1.35351">
        <ele>41</ele>
        <time>2022-02-27T18:59:58Z</time>
      </trkpt>
      <trkpt lat="46.56913" lon="-1.35246">
        <ele>40</ele>
        <time>2022-02-27T19:00:17Z</time>
      </trkpt>
      <trkpt lat="46.56903" lon="-1.35143">
        <ele>41</ele>
        <time>2022-02-27T19:00:34Z</time>
      </trkpt>
      <trkpt lat="46.56881" lon="-1.35116">
        <ele>38</ele>
        <time>2022-02-27T19:00:41Z</time>
      </trkpt>
      <trkpt lat="46.5687" lon="-1.35107">
        <ele>36</ele>
        <time>2022-02-27T19:00:44Z</time>
      </trkpt>
      <trkpt lat="46.56821" lon="-1.35202">
        <ele>31</ele>
        <time>2022-02-27T19:01:03Z</time>
      </trkpt>
      <trkpt lat="46.56744" lon="-1.35279">
        <ele>28</ele>
        <time>2022-02-27T19:01:25Z</time>
      </trkpt>
      <trkpt lat="46.56743" lon="-1.35307">
        <ele>28</ele>
        <time>2022-02-27T19:01:29Z</time>
      </trkpt>
      <trkpt lat="46.56747" lon="-1.3534">
        <ele>28</ele>
        <time>2022-02-27T19:01:35Z</time>
      </trkpt>
      <trkpt lat="46.56761" lon="-1.35387">
        <ele>29</ele>
        <time>2022-02-27T19:01:43Z</time>
      </trkpt>
      <trkpt lat="46.5677" lon="-1.35438">
        <ele>29</ele>
        <time>2022-02-27T19:01:51Z</time>
      </trkpt>
      <trkpt lat="46.56788" lon="-1.35503">
        <ele>29</ele>
        <time>2022-02-27T19:02:03Z</time>
      </trkpt>
      <trkpt lat="46.56787" lon="-1.35543">
        <ele>29</ele>
        <time>2022-02-27T19:02:09Z</time>
      </trkpt>
      <trkpt lat="46.56795" lon="-1.35569">
        <ele>30</ele>
        <time>2022-02-27T19:02:14Z</time>
      </trkpt>
      <trkpt lat="46.56776" lon="-1.35579">
        <ele>31</ele>
        <time>2022-02-27T19:02:18Z</time>
      </trkpt>
      <trkpt lat="46.56777" lon="-1.35599">
        <ele>31</ele>
        <time>2022-02-27T19:02:21Z</time>
      </trkpt>
      <trkpt lat="46.56775" lon="-1.35605">
        <ele>31</ele>
        <time>2022-02-27T19:02:23Z</time>
      </trkpt>
      <trkpt lat="46.56771" lon="-1.3561">
        <ele>31</ele>
        <time>2022-02-27T19:02:24Z</time>
      </trkpt>
      <trkpt lat="46.56768" lon="-1.35608">
        <ele>32</ele>
        <time>2022-02-27T19:02:25Z</time>
      </trkpt>
      <trkpt lat="46.56755" lon="-1.35582">
        <ele>32</ele>
        <time>2022-02-27T19:02:30Z</time>
      </trkpt>
      <trkpt lat="46.56727" lon="-1.35557">
        <ele>33</ele>
        <time>2022-02-27T19:02:37Z</time>
      </trkpt>
      <trkpt lat="46.56722" lon="-1.35552">
        <ele>34</ele>
        <time>2022-02-27T19:02:39Z</time>
      </trkpt>
      <trkpt lat="46.56693" lon="-1.35454">
        <ele>34</ele>
        <time>2022-02-27T19:02:56Z</time>
      </trkpt>
      <trkpt lat="46.56685" lon="-1.35444">
        <ele>35</ele>
        <time>2022-02-27T19:02:58Z</time>
      </trkpt>
      <trkpt lat="46.56656" lon="-1.35503">
        <ele>37</ele>
        <time>2022-02-27T19:03:10Z</time>
      </trkpt>
      <trkpt lat="46.56624" lon="-1.35595">
        <ele>41</ele>
        <time>2022-02-27T19:03:27Z</time>
      </trkpt>
      <trkpt lat="46.56573" lon="-1.35673">
        <ele>47</ele>
        <time>2022-02-27T19:03:44Z</time>
      </trkpt>
      <trkpt lat="46.56535" lon="-1.35757">
        <ele>48</ele>
        <time>2022-02-27T19:04:00Z</time>
      </trkpt>
      <trkpt lat="46.56514" lon="-1.35724">
        <ele>47</ele>
        <time>2022-02-27T19:04:07Z</time>
      </trkpt>
      <trkpt lat="46.56468" lon="-1.35692">
        <ele>48</ele>
        <time>2022-02-27T19:04:19Z</time>
      </trkpt>
      <trkpt lat="46.56434" lon="-1.35653">
        <ele>49</ele>
        <time>2022-02-27T19:04:29Z</time>
      </trkpt>
      <trkpt lat="46.56422" lon="-1.35641">
        <ele>50</ele>
        <time>2022-02-27T19:04:33Z</time>
      </trkpt>
      <trkpt lat="46.56377" lon="-1.35669">
        <ele>53</ele>
        <time>2022-02-27T19:04:44Z</time>
      </trkpt>
      <trkpt lat="46.5628" lon="-1.35735">
        <ele>60</ele>
        <time>2022-02-27T19:05:09Z</time>
      </trkpt>
      <trkpt lat="46.5618" lon="-1.35776">
        <ele>62</ele>
        <time>2022-02-27T19:05:33Z</time>
      </trkpt>
      <trkpt lat="46.56147" lon="-1.35724">
        <ele>61</ele>
        <time>2022-02-27T19:05:45Z</time>
      </trkpt>
      <trkpt lat="46.56086" lon="-1.35657">
        <ele>60</ele>
        <time>2022-02-27T19:06:03Z</time>
      </trkpt>
      <trkpt lat="46.56061" lon="-1.35594">
        <ele>56</ele>
        <time>2022-02-27T19:06:14Z</time>
      </trkpt>
      <trkpt lat="46.56036" lon="-1.355">
        <ele>52</ele>
        <time>2022-02-27T19:06:30Z</time>
      </trkpt>
      <trkpt lat="46.56028" lon="-1.35422">
        <ele>51</ele>
        <time>2022-02-27T19:06:43Z</time>
      </trkpt>
      <trkpt lat="46.56005" lon="-1.35348">
        <ele>49</ele>
        <time>2022-02-27T19:06:56Z</time>
      </trkpt>
      <trkpt lat="46.55963" lon="-1.35264">
        <ele>46</ele>
        <time>2022-02-27T19:07:13Z</time>
      </trkpt>
      <trkpt lat="46.55921" lon="-1.35196">
        <ele>45</ele>
        <time>2022-02-27T19:07:27Z</time>
      </trkpt>
      <trkpt lat="46.55888" lon="-1.3515">
        <ele>43</ele>
        <time>2022-02-27T19:07:38Z</time>
      </trkpt>
      <trkpt lat="46.5585" lon="-1.35115">
        <ele>42</ele>
        <time>2022-02-27T19:07:49Z</time>
      </trkpt>
      <trkpt lat="46.55795" lon="-1.35077">
        <ele>39</ele>
        <time>2022-02-27T19:08:03Z</time>
      </trkpt>
      <trkpt lat="46.55772" lon="-1.35066">
        <ele>37</ele>
        <time>2022-02-27T19:08:09Z</time>
      </trkpt>
      <trkpt lat="46.55705" lon="-1.35143">
        <ele>38</ele>
        <time>2022-02-27T19:08:28Z</time>
      </trkpt>
      <trkpt lat="46.55589" lon="-1.35361">
        <ele>41</ele>
        <time>2022-02-27T19:09:13Z</time>
      </trkpt>
      <trkpt lat="46.55594" lon="-1.35485">
        <ele>43</ele>
        <time>2022-02-27T19:09:33Z</time>
      </trkpt>
      <trkpt lat="46.5558" lon="-1.35542">
        <ele>45</ele>
        <time>2022-02-27T19:09:42Z</time>
      </trkpt>
      <trkpt lat="46.55494" lon="-1.35719">
        <ele>50</ele>
        <time>2022-02-27T19:10:17Z</time>
      </trkpt>
      <trkpt lat="46.55496" lon="-1.35761">
        <ele>51</ele>
        <time>2022-02-27T19:10:24Z</time>
      </trkpt>
      <trkpt lat="46.55418" lon="-1.35925">
        <ele>54</ele>
        <time>2022-02-27T19:10:56Z</time>
      </trkpt>
      <trkpt lat="46.55335" lon="-1.36014">
        <ele>52</ele>
        <time>2022-02-27T19:11:20Z</time>
      </trkpt>
      <trkpt lat="46.55277" lon="-1.36016">
        <ele>53</ele>
        <time>2022-02-27T19:11:34Z</time>
      </trkpt>
      <trkpt lat="46.55243" lon="-1.36034">
        <ele>54</ele>
        <time>2022-02-27T19:11:42Z</time>
      </trkpt>
      <trkpt lat="46.55092" lon="-1.36322">
        <ele>59</ele>
        <time>2022-02-27T19:12:40Z</time>
      </trkpt>
      <trkpt lat="46.55049" lon="-1.36301">
        <ele>63</ele>
        <time>2022-02-27T19:12:51Z</time>
      </trkpt>
      <trkpt lat="46.55011" lon="-1.36297">
        <ele>66</ele>
        <time>2022-02-27T19:13:00Z</time>
      </trkpt>
      <trkpt lat="46.5496" lon="-1.3633">
        <ele>68</ele>
        <time>2022-02-27T19:13:13Z</time>
      </trkpt>
      <trkpt lat="46.54984" lon="-1.36332">
        <ele>67</ele>
        <time>2022-02-27T19:13:18Z</time>
      </trkpt>
      <trkpt lat="46.54996" lon="-1.36343">
        <ele>66</ele>
        <time>2022-02-27T19:13:22Z</time>
      </trkpt>
      <trkpt lat="46.55012" lon="-1.36587">
        <ele>59</ele>
        <time>2022-02-27T19:14:01Z</time>
      </trkpt>
      <trkpt lat="46.55009" lon="-1.36756">
        <ele>61</ele>
        <time>2022-02-27T19:14:28Z</time>
      </trkpt>
      <trkpt lat="46.55039" lon="-1.36864">
        <ele>61</ele>
        <time>2022-02-27T19:14:47Z</time>
      </trkpt>
      <trkpt lat="46.55107" lon="-1.36971">
        <ele>61</ele>
        <time>2022-02-27T19:15:10Z</time>
      </trkpt>
      <trkpt lat="46.551" lon="-1.37056">
        <ele>62</ele>
        <time>2022-02-27T19:15:24Z</time>
      </trkpt>
      <trkpt lat="46.55083" lon="-1.37101">
        <ele>63</ele>
        <time>2022-02-27T19:15:32Z</time>
      </trkpt>
      <trkpt lat="46.55007" lon="-1.37244">
        <ele>65</ele>
        <time>2022-02-27T19:16:01Z</time>
      </trkpt>
      <trkpt lat="46.55009" lon="-1.37388">
        <ele>66</ele>
        <time>2022-02-27T19:16:24Z</time>
      </trkpt>
      <trkpt lat="46.54974" lon="-1.37383">
        <ele>66</ele>
        <time>2022-02-27T19:16:33Z</time>
      </trkpt>
      <trkpt lat="46.54955" lon="-1.37388">
        <ele>66</ele>
        <time>2022-02-27T19:16:37Z</time>
      </trkpt>
      <trkpt lat="46.54916" lon="-1.37431">
        <ele>67</ele>
        <time>2022-02-27T19:16:49Z</time>
      </trkpt>
      <trkpt lat="46.5494" lon="-1.3745">
        <ele>67</ele>
        <time>2022-02-27T19:16:55Z</time>
      </trkpt>
      <trkpt lat="46.54997" lon="-1.37431">
        <ele>66</ele>
        <time>2022-02-27T19:17:09Z</time>
      </trkpt>
      <trkpt lat="46.55013" lon="-1.37439">
        <ele>66</ele>
        <time>2022-02-27T19:17:13Z</time>
      </trkpt>
      <trkpt lat="46.55002" lon="-1.37538">
        <ele>66</ele>
        <time>2022-02-27T19:17:29Z</time>
      </trkpt>
      <trkpt lat="46.54987" lon="-1.37686">
        <ele>66</ele>
        <time>2022-02-27T19:17:53Z</time>
      </trkpt>
      <trkpt lat="46.54994" lon="-1.37821">
        <ele>66</ele>
        <time>2022-02-27T19:18:14Z</time>
      </trkpt>
      <trkpt lat="46.54929" lon="-1.38081">
        <ele>61</ele>
        <time>2022-02-27T19:18:59Z</time>
      </trkpt>
      <trkpt lat="46.54895" lon="-1.38724">
        <ele>41</ele>
        <time>2022-02-27T19:20:42Z</time>
      </trkpt>
      <trkpt lat="46.54902" lon="-1.38795">
        <ele>40</ele>
        <time>2022-02-27T19:20:54Z</time>
      </trkpt>
      <trkpt lat="46.54946" lon="-1.38882">
        <ele>39</ele>
        <time>2022-02-27T19:21:11Z</time>
      </trkpt>
      <trkpt lat="46.5497" lon="-1.39036">
        <ele>36</ele>
        <time>2022-02-27T19:21:37Z</time>
      </trkpt>
      <trkpt lat="46.55005" lon="-1.39085">
        <ele>35</ele>
        <time>2022-02-27T19:21:48Z</time>
      </trkpt>
      <trkpt lat="46.55017" lon="-1.39095">
        <ele>36</ele>
        <time>2022-02-27T19:21:51Z</time>
      </trkpt>
      <trkpt lat="46.55036" lon="-1.39102">
        <ele>38</ele>
        <time>2022-02-27T19:21:56Z</time>
      </trkpt>
      <trkpt lat="46.55075" lon="-1.391">
        <ele>41</ele>
        <time>2022-02-27T19:22:05Z</time>
      </trkpt>
      <trkpt lat="46.55096" lon="-1.39182">
        <ele>38</ele>
        <time>2022-02-27T19:22:19Z</time>
      </trkpt>
      <trkpt lat="46.55118" lon="-1.39207">
        <ele>38</ele>
        <time>2022-02-27T19:22:26Z</time>
      </trkpt>
      <trkpt lat="46.55152" lon="-1.39205">
        <ele>38</ele>
        <time>2022-02-27T19:22:33Z</time>
      </trkpt>
      <trkpt lat="46.5522" lon="-1.39209">
        <ele>38</ele>
        <time>2022-02-27T19:22:49Z</time>
      </trkpt>
      <trkpt lat="46.55255" lon="-1.39223">
        <ele>38</ele>
        <time>2022-02-27T19:22:58Z</time>
      </trkpt>
      <trkpt lat="46.5529" lon="-1.39199">
        <ele>40</ele>
        <time>2022-02-27T19:23:07Z</time>
      </trkpt>
      <trkpt lat="46.55338" lon="-1.39223">
        <ele>40</ele>
        <time>2022-02-27T19:23:19Z</time>
      </trkpt>
      <trkpt lat="46.55442" lon="-1.39188">
        <ele>40</ele>
        <time>2022-02-27T19:23:44Z</time>
      </trkpt>
      <trkpt lat="46.55551" lon="-1.39108">
        <ele>42</ele>
        <time>2022-02-27T19:24:12Z</time>
      </trkpt>
      <trkpt lat="46.55581" lon="-1.39041">
        <ele>43</ele>
        <time>2022-02-27T19:24:25Z</time>
      </trkpt>
      <trkpt lat="46.55619" lon="-1.38977">
        <ele>44</ele>
        <time>2022-02-27T19:24:39Z</time>
      </trkpt>
      <trkpt lat="46.55697" lon="-1.38903">
        <ele>44</ele>
        <time>2022-02-27T19:25:00Z</time>
      </trkpt>
      <trkpt lat="46.55763" lon="-1.38822">
        <ele>46</ele>
        <time>2022-02-27T19:25:21Z</time>
      </trkpt>
      <trkpt lat="46.55856" lon="-1.38827">
        <ele>51</ele>
        <time>2022-02-27T19:25:42Z</time>
      </trkpt>
      <trkpt lat="46.55847" lon="-1.38901">
        <ele>49</ele>
        <time>2022-02-27T19:25:54Z</time>
      </trkpt>
      <trkpt lat="46.55824" lon="-1.39008">
        <ele>47</ele>
        <time>2022-02-27T19:26:12Z</time>
      </trkpt>
      <trkpt lat="46.5582" lon="-1.39056">
        <ele>47</ele>
        <time>2022-02-27T19:26:20Z</time>
      </trkpt>
      <trkpt lat="46.5579" lon="-1.39326">
        <ele>49</ele>
        <time>2022-02-27T19:27:04Z</time>
      </trkpt>
      <trkpt lat="46.55792" lon="-1.39429">
        <ele>46</ele>
        <time>2022-02-27T19:27:21Z</time>
      </trkpt>
      <trkpt lat="46.55803" lon="-1.39515">
        <ele>46</ele>
        <time>2022-02-27T19:27:35Z</time>
      </trkpt>
      <trkpt lat="46.55801" lon="-1.39637">
        <ele>44</ele>
        <time>2022-02-27T19:27:54Z</time>
      </trkpt>
      <trkpt lat="46.55809" lon="-1.39658">
        <ele>44</ele>
        <time>2022-02-27T19:27:58Z</time>
      </trkpt>
      <trkpt lat="46.55861" lon="-1.39676">
        <ele>48</ele>
        <time>2022-02-27T19:28:11Z</time>
      </trkpt>
      <trkpt lat="46.55853" lon="-1.39741">
        <ele>47</ele>
        <time>2022-02-27T19:28:21Z</time>
      </trkpt>
      <trkpt lat="46.55864" lon="-1.39813">
        <ele>45</ele>
        <time>2022-02-27T19:28:33Z</time>
      </trkpt>
      <trkpt lat="46.55898" lon="-1.39863">
        <ele>44</ele>
        <time>2022-02-27T19:28:44Z</time>
      </trkpt>
      <trkpt lat="46.55944" lon="-1.39867">
        <ele>46</ele>
        <time>2022-02-27T19:28:55Z</time>
      </trkpt>
      <trkpt lat="46.55969" lon="-1.39895">
        <ele>46</ele>
        <time>2022-02-27T19:29:02Z</time>
      </trkpt>
      <trkpt lat="46.55973" lon="-1.40001">
        <ele>47</ele>
        <time>2022-02-27T19:29:19Z</time>
      </trkpt>
      <trkpt lat="46.56028" lon="-1.40034">
        <ele>52</ele>
        <time>2022-02-27T19:29:33Z</time>
      </trkpt>
      <trkpt lat="46.5602" lon="-1.40148">
        <ele>50</ele>
        <time>2022-02-27T19:29:52Z</time>
      </trkpt>
      <trkpt lat="46.56112" lon="-1.40282">
        <ele>53</ele>
        <time>2022-02-27T19:30:22Z</time>
      </trkpt>
      <trkpt lat="46.5623" lon="-1.40538">
        <ele>49</ele>
        <time>2022-02-27T19:31:12Z</time>
      </trkpt>
      <trkpt lat="46.5633" lon="-1.40679">
        <ele>51</ele>
        <time>2022-02-27T19:31:44Z</time>
      </trkpt>
      <trkpt lat="46.5625" lon="-1.40843">
        <ele>46</ele>
        <time>2022-02-27T19:32:16Z</time>
      </trkpt>
      <trkpt lat="46.56261" lon="-1.40888">
        <ele>49</ele>
        <time>2022-02-27T19:32:24Z</time>
      </trkpt>
      <trkpt lat="46.56284" lon="-1.4093">
        <ele>50</ele>
        <time>2022-02-27T19:32:33Z</time>
      </trkpt>
      <trkpt lat="46.56345" lon="-1.40997">
        <ele>51</ele>
        <time>2022-02-27T19:32:51Z</time>
      </trkpt>
      <trkpt lat="46.56415" lon="-1.41089">
        <ele>52</ele>
        <time>2022-02-27T19:33:13Z</time>
      </trkpt>
      <trkpt lat="46.56479" lon="-1.41233">
        <ele>57</ele>
        <time>2022-02-27T19:33:40Z</time>
      </trkpt>
      <trkpt lat="46.5643" lon="-1.41276">
        <ele>60</ele>
        <time>2022-02-27T19:33:54Z</time>
      </trkpt>
      <trkpt lat="46.56114" lon="-1.41376">
        <ele>69</ele>
        <time>2022-02-27T19:35:09Z</time>
      </trkpt>
      <trkpt lat="46.56002" lon="-1.41565">
        <ele>69</ele>
        <time>2022-02-27T19:35:49Z</time>
      </trkpt>
      <trkpt lat="46.5595" lon="-1.41671">
        <ele>70</ele>
        <time>2022-02-27T19:36:10Z</time>
      </trkpt>
      <trkpt lat="46.5588" lon="-1.41767">
        <ele>72</ele>
        <time>2022-02-27T19:36:33Z</time>
      </trkpt>
      <trkpt lat="46.55879" lon="-1.41927">
        <ele>76</ele>
        <time>2022-02-27T19:36:58Z</time>
      </trkpt>
      <trkpt lat="46.55751" lon="-1.42703">
        <ele>75</ele>
        <time>2022-02-27T19:39:06Z</time>
      </trkpt>
      <trkpt lat="46.5588" lon="-1.42683">
        <ele>74</ele>
        <time>2022-02-27T19:39:37Z</time>
      </trkpt>
      <trkpt lat="46.55949" lon="-1.42629">
        <ele>75</ele>
        <time>2022-02-27T19:39:55Z</time>
      </trkpt>
      <trkpt lat="46.55988" lon="-1.42726">
        <ele>74</ele>
        <time>2022-02-27T19:40:13Z</time>
      </trkpt>
      <trkpt lat="46.56086" lon="-1.42784">
        <ele>76</ele>
        <time>2022-02-27T19:40:38Z</time>
      </trkpt>
      <trkpt lat="46.56179" lon="-1.42816">
        <ele>76</ele>
        <time>2022-02-27T19:41:00Z</time>
      </trkpt>
      <trkpt lat="46.56291" lon="-1.42902">
        <ele>76</ele>
        <time>2022-02-27T19:41:30Z</time>
      </trkpt>
      <trkpt lat="46.5637" lon="-1.4294">
        <ele>75</ele>
        <time>2022-02-27T19:41:49Z</time>
      </trkpt>
      <trkpt lat="46.5649" lon="-1.42935">
        <ele>72</ele>
        <time>2022-02-27T19:42:17Z</time>
      </trkpt>
      <trkpt lat="46.56576" lon="-1.42666">
        <ele>70</ele>
        <time>2022-02-27T19:43:05Z</time>
      </trkpt>
      <trkpt lat="46.56668" lon="-1.42457">
        <ele>69</ele>
        <time>2022-02-27T19:43:45Z</time>
      </trkpt>
      <trkpt lat="46.56826" lon="-1.42624">
        <ele>67</ele>
        <time>2022-02-27T19:44:30Z</time>
      </trkpt>
      <trkpt lat="46.56864" lon="-1.42739">
        <ele>70</ele>
        <time>2022-02-27T19:44:51Z</time>
      </trkpt>
      <trkpt lat="46.56864" lon="-1.42873">
        <ele>71</ele>
        <time>2022-02-27T19:45:12Z</time>
      </trkpt>
      <trkpt lat="46.56849" lon="-1.42895">
        <ele>72</ele>
        <time>2022-02-27T19:45:17Z</time>
      </trkpt>
      <trkpt lat="46.5688" lon="-1.43027">
        <ele>73</ele>
        <time>2022-02-27T19:45:40Z</time>
      </trkpt>
      <trkpt lat="46.5694" lon="-1.43182">
        <ele>75</ele>
        <time>2022-02-27T19:46:08Z</time>
      </trkpt>
      <trkpt lat="46.57053" lon="-1.4327">
        <ele>75</ele>
        <time>2022-02-27T19:46:38Z</time>
      </trkpt>
      <trkpt lat="46.57116" lon="-1.43407">
        <ele>72</ele>
        <time>2022-02-27T19:47:04Z</time>
      </trkpt>
      <trkpt lat="46.57124" lon="-1.43589">
        <ele>68</ele>
        <time>2022-02-27T19:47:34Z</time>
      </trkpt>
      <trkpt lat="46.57161" lon="-1.4364">
        <ele>68</ele>
        <time>2022-02-27T19:47:46Z</time>
      </trkpt>
      <trkpt lat="46.57201" lon="-1.43747">
        <ele>66</ele>
        <time>2022-02-27T19:48:05Z</time>
      </trkpt>
      <trkpt lat="46.57266" lon="-1.43743">
        <ele>67</ele>
        <time>2022-02-27T19:48:20Z</time>
      </trkpt>
      <trkpt lat="46.57259" lon="-1.4385">
        <ele>68</ele>
        <time>2022-02-27T19:48:38Z</time>
      </trkpt>
      <trkpt lat="46.57237" lon="-1.4405">
        <ele>65</ele>
        <time>2022-02-27T19:49:10Z</time>
      </trkpt>
      <trkpt lat="46.57244" lon="-1.44134">
        <ele>63</ele>
        <time>2022-02-27T19:49:24Z</time>
      </trkpt>
      <trkpt lat="46.57378" lon="-1.44125">
        <ele>64</ele>
        <time>2022-02-27T19:49:55Z</time>
      </trkpt>
      <trkpt lat="46.57436" lon="-1.44146">
        <ele>64</ele>
        <time>2022-02-27T19:50:09Z</time>
      </trkpt>
      <trkpt lat="46.57542" lon="-1.44049">
        <ele>64</ele>
        <time>2022-02-27T19:50:38Z</time>
      </trkpt>
      <trkpt lat="46.57653" lon="-1.44043">
        <ele>61</ele>
        <time>2022-02-27T19:51:04Z</time>
      </trkpt>
      <trkpt lat="46.57693" lon="-1.43976">
        <ele>60</ele>
        <time>2022-02-27T19:51:18Z</time>
      </trkpt>
      <trkpt lat="46.57885" lon="-1.43961">
        <ele>63</ele>
        <time>2022-02-27T19:52:03Z</time>
      </trkpt>
      <trkpt lat="46.57922" lon="-1.43934">
        <ele>64</ele>
        <time>2022-02-27T19:52:13Z</time>
      </trkpt>
      <trkpt lat="46.57957" lon="-1.43953">
        <ele>62</ele>
        <time>2022-02-27T19:52:22Z</time>
      </trkpt>
      <trkpt lat="46.58031" lon="-1.43855">
        <ele>68</ele>
        <time>2022-02-27T19:52:45Z</time>
      </trkpt>
      <trkpt lat="46.58281" lon="-1.43767">
        <ele>72</ele>
        <time>2022-02-27T19:53:45Z</time>
      </trkpt>
      <trkpt lat="46.58439" lon="-1.4401">
        <ele>70</ele>
        <time>2022-02-27T19:54:39Z</time>
      </trkpt>
      <trkpt lat="46.58594" lon="-1.44143">
        <ele>67</ele>
        <time>2022-02-27T19:55:21Z</time>
      </trkpt>
      <trkpt lat="46.58746" lon="-1.44355">
        <ele>61</ele>
        <time>2022-02-27T19:56:10Z</time>
      </trkpt>
      <trkpt lat="46.58723" lon="-1.44422">
        <ele>56</ele>
        <time>2022-02-27T19:56:22Z</time>
      </trkpt>
      <trkpt lat="46.58683" lon="-1.44528">
        <ele>54</ele>
        <time>2022-02-27T19:56:41Z</time>
      </trkpt>
      <trkpt lat="46.58794" lon="-1.44647">
        <ele>56</ele>
        <time>2022-02-27T19:57:14Z</time>
      </trkpt>
      <trkpt lat="46.59032" lon="-1.44453">
        <ele>65</ele>
        <time>2022-02-27T19:58:17Z</time>
      </trkpt>
      <trkpt lat="46.59055" lon="-1.44534">
        <ele>66</ele>
        <time>2022-02-27T19:58:31Z</time>
      </trkpt>
      <trkpt lat="46.59119" lon="-1.44622">
        <ele>68</ele>
        <time>2022-02-27T19:58:52Z</time>
      </trkpt>
      <trkpt lat="46.5919" lon="-1.44571">
        <ele>67</ele>
        <time>2022-02-27T19:59:11Z</time>
      </trkpt>
      <trkpt lat="46.59236" lon="-1.44656">
        <ele>68</ele>
        <time>2022-02-27T19:59:28Z</time>
      </trkpt>
      <trkpt lat="46.59296" lon="-1.44692">
        <ele>67</ele>
        <time>2022-02-27T19:59:43Z</time>
      </trkpt>
      <trkpt lat="46.59332" lon="-1.44759">
        <ele>67</ele>
        <time>2022-02-27T19:59:57Z</time>
      </trkpt>
      <trkpt lat="46.59434" lon="-1.44773">
        <ele>62</ele>
        <time>2022-02-27T20:00:21Z</time>
      </trkpt>
      <trkpt lat="46.59516" lon="-1.45144">
        <ele>51</ele>
        <time>2022-02-27T20:01:23Z</time>
      </trkpt>
      <trkpt lat="46.59556" lon="-1.45168">
        <ele>52</ele>
        <time>2022-02-27T20:01:33Z</time>
      </trkpt>
      <trkpt lat="46.5954" lon="-1.45191">
        <ele>52</ele>
        <time>2022-02-27T20:01:39Z</time>
      </trkpt>
      <trkpt lat="46.59521" lon="-1.45223">
        <ele>52</ele>
        <time>2022-02-27T20:01:45Z</time>
      </trkpt>
      <trkpt lat="46.59521" lon="-1.45274">
        <ele>53</ele>
        <time>2022-02-27T20:01:53Z</time>
      </trkpt>
      <trkpt lat="46.59527" lon="-1.45303">
        <ele>54</ele>
        <time>2022-02-27T20:01:58Z</time>
      </trkpt>
      <trkpt lat="46.59532" lon="-1.45321">
        <ele>55</ele>
        <time>2022-02-27T20:02:01Z</time>
      </trkpt>
      <trkpt lat="46.59533" lon="-1.45327">
        <ele>55</ele>
        <time>2022-02-27T20:02:02Z</time>
      </trkpt>
    </trkseg>
  </trk>
</gpx>